sensor_id;sensor_type;location;lat;lon;timestamp;temperature;humidity
42147;DHT22;27815;43.410;11.852;2023-06-10T04:49:23;20.20;76.80
42147;DHT22;27815;43.410;11.852;2023-06-10T05:33:49;20.30;77.00
42147;DHT22;27815;43.410;11.852;2023-06-10T05:37:55;20.30;77.10
42147;DHT22;27815;43.410;11.852;2023-06-10T05:42:09;20.40;77.00
42147;DHT22;27815;43.410;11.852;2023-06-10T05:46:17;20.40;77.10
42147;DHT22;27815;43.410;11.852;2023-06-10T05:50:24;20.40;77.30
42147;DHT22;27815;43.410;11.852;2023-06-10T05:54:29;20.30;77.40
42147;DHT22;27815;43.410;11.852;2023-06-10T05:58:45;20.30;77.60
42147;DHT22;27815;43.410;11.852;2023-06-10T06:08:07;20.40;77.70
42147;DHT22;27815;43.410;11.852;2023-06-10T06:12:44;20.40;77.90
42147;DHT22;27815;43.410;11.852;2023-06-10T06:16:48;20.50;77.50
42147;DHT22;27815;43.410;11.852;2023-06-10T06:20:50;20.70;77.20
42147;DHT22;27815;43.410;11.852;2023-06-10T06:24:53;20.90;77.00
42147;DHT22;27815;43.410;11.852;2023-06-10T06:29:02;21.00;76.80
42147;DHT22;27815;43.410;11.852;2023-06-10T06:33:13;21.00;76.70
42147;DHT22;27815;43.410;11.852;2023-06-10T06:37:16;21.10;76.60
42147;DHT22;27815;43.410;11.852;2023-06-10T06:41:20;21.20;76.50
42147;DHT22;27815;43.410;11.852;2023-06-10T06:45:27;21.30;76.40
42147;DHT22;27815;43.410;11.852;2023-06-10T06:49:31;21.50;76.20
42147;DHT22;27815;43.410;11.852;2023-06-10T06:53:34;21.50;76.20
42147;DHT22;27815;43.410;11.852;2023-06-10T06:57:38;21.60;76.20
42147;DHT22;27815;43.410;11.852;2023-06-10T07:01:42;21.80;76.00
42147;DHT22;27815;43.410;11.852;2023-06-10T07:06:00;22.00;75.70
42147;DHT22;27815;43.410;11.852;2023-06-10T07:10:10;22.10;75.50
42147;DHT22;27815;43.410;11.852;2023-06-10T07:14:17;22.20;75.20
42147;DHT22;27815;43.410;11.852;2023-06-10T07:18:21;22.20;75.20
42147;DHT22;27815;43.410;11.852;2023-06-10T07:22:28;22.20;75.40
42147;DHT22;27815;43.410;11.852;2023-06-10T07:26:32;22.50;75.00
42147;DHT22;27815;43.410;11.852;2023-06-10T07:30:35;22.60;74.60
42147;DHT22;27815;43.410;11.852;2023-06-10T07:34:39;22.60;74.60
42147;DHT22;27815;43.410;11.852;2023-06-10T07:38:44;22.70;74.50
42147;DHT22;27815;43.410;11.852;2023-06-10T07:43:17;22.80;74.30
42147;DHT22;27815;43.410;11.852;2023-06-10T07:47:22;23.10;74.00
42147;DHT22;27815;43.410;11.852;2023-06-10T07:51:32;23.50;73.40
42147;DHT22;27815;43.410;11.852;2023-06-10T07:55:42;23.90;72.50
42147;DHT22;27815;43.410;11.852;2023-06-10T07:59:44;23.90;72.50
42147;DHT22;27815;43.410;11.852;2023-06-10T08:03:50;23.90;72.10
42147;DHT22;27815;43.410;11.852;2023-06-10T08:07:57;24.00;71.80
42147;DHT22;27815;43.410;11.852;2023-06-10T08:12:10;24.10;71.40
42147;DHT22;27815;43.410;11.852;2023-06-10T08:16:21;24.00;71.00
42147;DHT22;27815;43.410;11.852;2023-06-10T08:20:25;24.10;70.50
42147;DHT22;27815;43.410;11.852;2023-06-10T08:24:28;24.00;70.10
42147;DHT22;27815;43.410;11.852;2023-06-10T08:28:31;24.30;69.90
42147;DHT22;27815;43.410;11.852;2023-06-10T08:32:34;24.60;69.30
42147;DHT22;27815;43.410;11.852;2023-06-10T08:36:37;24.80;68.20
42147;DHT22;27815;43.410;11.852;2023-06-10T08:40:40;24.90;67.70
42147;DHT22;27815;43.410;11.852;2023-06-10T08:44:46;25.10;67.30
42147;DHT22;27815;43.410;11.852;2023-06-10T08:48:55;25.40;65.90
42147;DHT22;27815;43.410;11.852;2023-06-10T08:53:08;25.50;65.00
42147;DHT22;27815;43.410;11.852;2023-06-10T08:57:35;25.40;65.10
42147;DHT22;27815;43.410;11.852;2023-06-10T09:01:44;25.40;65.00
42147;DHT22;27815;43.410;11.852;2023-06-10T09:05:58;25.30;65.20
42147;DHT22;27815;43.410;11.852;2023-06-10T09:10:25;25.30;65.30
42147;DHT22;27815;43.410;11.852;2023-06-10T09:14:57;25.30;65.40
42147;DHT22;27815;43.410;11.852;2023-06-10T09:29:58;25.00;65.20
42147;DHT22;27815;43.410;11.852;2023-06-10T09:35:16;24.80;64.30
42147;DHT22;27815;43.410;11.852;2023-06-10T09:53:06;25.70;62.80
42147;DHT22;27815;43.410;11.852;2023-06-10T09:57:09;26.00;62.00
42147;DHT22;27815;43.410;11.852;2023-06-10T10:01:14;26.00;61.60
42147;DHT22;27815;43.410;11.852;2023-06-10T10:28:20;25.40;63.80
42147;DHT22;27815;43.410;11.852;2023-06-10T10:34:49;25.30;63.90
42147;DHT22;27815;43.410;11.852;2023-06-10T10:39:37;25.00;64.20
42147;DHT22;27815;43.410;11.852;2023-06-10T10:48:55;25.00;65.20
42147;DHT22;27815;43.410;11.852;2023-06-10T11:04:22;24.60;64.30
42147;DHT22;27815;43.410;11.852;2023-06-10T11:19:37;23.20;67.60
42147;DHT22;27815;43.410;11.852;2023-06-10T11:23:58;23.20;67.50
42147;DHT22;27815;43.410;11.852;2023-06-10T11:28:02;23.20;68.20
42147;DHT22;27815;43.410;11.852;2023-06-10T11:45:47;23.50;69.20
42147;DHT22;27815;43.410;11.852;2023-06-10T12:12:45;23.30;69.60
42147;DHT22;27815;43.410;11.852;2023-06-10T12:16:49;23.50;69.50
42147;DHT22;27815;43.410;11.852;2023-06-10T12:20:52;23.40;69.50
42147;DHT22;27815;43.410;11.852;2023-06-10T12:25:01;23.50;69.70
42147;DHT22;27815;43.410;11.852;2023-06-10T12:29:21;23.50;69.60
42147;DHT22;27815;43.410;11.852;2023-06-10T12:33:26;23.60;69.50
42147;DHT22;27815;43.410;11.852;2023-06-10T12:37:29;23.70;69.60
42147;DHT22;27815;43.410;11.852;2023-06-10T12:41:32;23.90;69.40
42147;DHT22;27815;43.410;11.852;2023-06-10T12:45:40;24.00;69.10
42147;DHT22;27815;43.410;11.852;2023-06-10T12:49:46;24.10;68.70
42147;DHT22;27815;43.410;11.852;2023-06-10T12:53:49;24.20;68.30
42147;DHT22;27815;43.410;11.852;2023-06-10T12:57:51;24.20;67.70
42147;DHT22;27815;43.410;11.852;2023-06-10T13:01:54;24.30;67.60
42147;DHT22;27815;43.410;11.852;2023-06-10T13:05:58;24.30;67.60
42147;DHT22;27815;43.410;11.852;2023-06-10T13:10:00;24.30;67.60
42147;DHT22;27815;43.410;11.852;2023-06-10T13:14:04;24.30;67.60
42147;DHT22;27815;43.410;11.852;2023-06-10T13:18:08;24.30;67.70
42147;DHT22;27815;43.410;11.852;2023-06-10T13:22:12;24.30;67.80
42147;DHT22;27815;43.410;11.852;2023-06-10T13:26:15;24.40;67.80
42147;DHT22;27815;43.410;11.852;2023-06-10T13:30:20;24.20;67.70
42147;DHT22;27815;43.410;11.852;2023-06-10T13:34:23;24.10;67.70
42147;DHT22;27815;43.410;11.852;2023-06-10T13:38:26;23.90;67.60
42147;DHT22;27815;43.410;11.852;2023-06-10T13:42:29;23.80;67.70
42147;DHT22;27815;43.410;11.852;2023-06-10T13:46:33;23.60;67.80
42147;DHT22;27815;43.410;11.852;2023-06-10T13:50:37;23.50;68.10
42147;DHT22;27815;43.410;11.852;2023-06-10T13:54:40;23.40;68.40
42147;DHT22;27815;43.410;11.852;2023-06-10T13:58:45;23.40;68.60
42147;DHT22;27815;43.410;11.852;2023-06-10T14:02:49;23.50;68.70
42147;DHT22;27815;43.410;11.852;2023-06-10T14:06:54;23.50;68.70
42147;DHT22;27815;43.410;11.852;2023-06-10T14:11:01;23.50;68.80
42147;DHT22;27815;43.410;11.852;2023-06-10T14:15:04;23.40;69.00
42147;DHT22;27815;43.410;11.852;2023-06-10T14:19:08;23.40;69.20
42147;DHT22;27815;43.410;11.852;2023-06-10T14:23:11;23.50;69.10
42147;DHT22;27815;43.410;11.852;2023-06-10T14:27:14;23.40;69.10
42147;DHT22;27815;43.410;11.852;2023-06-10T14:31:18;23.50;69.00
42147;DHT22;27815;43.410;11.852;2023-06-10T14:35:20;23.60;68.90
42147;DHT22;27815;43.410;11.852;2023-06-10T14:39:24;23.70;68.80
42147;DHT22;27815;43.410;11.852;2023-06-10T14:43:28;24.00;68.60
42147;DHT22;27815;43.410;11.852;2023-06-10T14:47:31;24.20;68.00
42147;DHT22;27815;43.410;11.852;2023-06-10T14:51:36;24.50;67.60
42147;DHT22;27815;43.410;11.852;2023-06-10T14:55:39;24.80;66.90
42147;DHT22;27815;43.410;11.852;2023-06-10T14:59:42;25.10;66.40
42147;DHT22;27815;43.410;11.852;2023-06-10T15:03:45;25.20;66.10
42147;DHT22;27815;43.410;11.852;2023-06-10T15:07:49;25.40;65.50
42147;DHT22;27815;43.410;11.852;2023-06-10T15:11:52;25.30;65.30
42147;DHT22;27815;43.410;11.852;2023-06-10T15:15:55;25.40;65.20
42147;DHT22;27815;43.410;11.852;2023-06-10T15:19:58;25.50;65.00
42147;DHT22;27815;43.410;11.852;2023-06-10T15:24:02;25.30;64.60
42147;DHT22;27815;43.410;11.852;2023-06-10T15:28:06;25.50;64.60
42147;DHT22;27815;43.410;11.852;2023-06-10T15:32:08;25.30;62.90
42147;DHT22;27815;43.410;11.852;2023-06-10T15:36:21;25.10;62.90
42147;DHT22;27815;43.410;11.852;2023-06-10T15:40:24;25.00;62.90
42147;DHT22;27815;43.410;11.852;2023-06-10T15:44:28;25.20;62.60
42147;DHT22;27815;43.410;11.852;2023-06-10T15:48:36;26.00;61.50
42147;DHT22;27815;43.410;11.852;2023-06-10T15:52:42;26.40;61.20
42147;DHT22;27815;43.410;11.852;2023-06-10T15:56:46;26.90;60.70
42147;DHT22;27815;43.410;11.852;2023-06-10T16:00:51;27.50;58.30
42147;DHT22;27815;43.410;11.852;2023-06-10T16:04:54;27.40;57.90
42147;DHT22;27815;43.410;11.852;2023-06-10T16:08:57;27.50;56.80
42147;DHT22;27815;43.410;11.852;2023-06-10T16:13:00;27.50;56.50
42147;DHT22;27815;43.410;11.852;2023-06-10T16:17:05;27.40;56.00
42147;DHT22;27815;43.410;11.852;2023-06-10T16:21:08;27.50;55.30
42147;DHT22;27815;43.410;11.852;2023-06-10T16:25:11;27.20;56.10
42147;DHT22;27815;43.410;11.852;2023-06-10T16:29:16;26.50;57.20
42147;DHT22;27815;43.410;11.852;2023-06-10T16:33:20;25.90;58.20
42147;DHT22;27815;43.410;11.852;2023-06-10T16:37:23;25.60;59.00
42147;DHT22;27815;43.410;11.852;2023-06-10T16:41:26;25.40;59.30
42147;DHT22;27815;43.410;11.852;2023-06-10T16:45:36;25.20;59.70
42147;DHT22;27815;43.410;11.852;2023-06-10T16:49:45;25.20;59.90
42147;DHT22;27815;43.410;11.852;2023-06-10T16:53:52;26.40;58.50
42147;DHT22;27815;43.410;11.852;2023-06-10T16:57:55;28.10;55.50
42147;DHT22;27815;43.410;11.852;2023-06-10T17:01:58;29.60;53.60
42147;DHT22;27815;43.410;11.852;2023-06-10T17:06:05;30.70;51.90
42147;DHT22;27815;43.410;11.852;2023-06-10T17:10:09;31.50;51.10
42147;DHT22;27815;43.410;11.852;2023-06-10T17:14:16;31.90;50.50
42147;DHT22;27815;43.410;11.852;2023-06-10T17:18:19;31.30;50.50
42147;DHT22;27815;43.410;11.852;2023-06-10T17:22:22;29.50;52.80
42147;DHT22;27815;43.410;11.852;2023-06-10T17:26:25;29.40;53.50
42147;DHT22;27815;43.410;11.852;2023-06-10T17:30:29;30.70;51.60
42147;DHT22;27815;43.410;11.852;2023-06-10T17:34:34;30.70;51.20
42147;DHT22;27815;43.410;11.852;2023-06-10T17:38:37;29.70;52.70
42147;DHT22;27815;43.410;11.852;2023-06-10T17:42:43;28.70;54.20
42147;DHT22;27815;43.410;11.852;2023-06-10T17:46:46;28.00;55.40
42147;DHT22;27815;43.410;11.852;2023-06-10T17:51:02;27.60;56.40
42147;DHT22;27815;43.410;11.852;2023-06-10T17:55:05;27.20;56.90
42147;DHT22;27815;43.410;11.852;2023-06-10T17:59:12;26.80;57.40
42147;DHT22;27815;43.410;11.852;2023-06-10T18:03:18;26.40;58.10
42147;DHT22;27815;43.410;11.852;2023-06-10T18:07:29;26.00;59.00
42147;DHT22;27815;43.410;11.852;2023-06-10T18:11:34;25.80;59.60
42147;DHT22;27815;43.410;11.852;2023-06-10T18:15:37;25.50;60.20
42147;DHT22;27815;43.410;11.852;2023-06-10T18:19:40;25.10;60.80
42147;DHT22;27815;43.410;11.852;2023-06-10T18:23:43;25.00;61.30
42147;DHT22;27815;43.410;11.852;2023-06-10T18:27:46;24.70;61.70
42147;DHT22;27815;43.410;11.852;2023-06-10T18:31:49;24.50;62.40
42147;DHT22;27815;43.410;11.852;2023-06-10T18:35:52;24.30;63.00
42147;DHT22;27815;43.410;11.852;2023-06-10T18:39:55;24.00;63.50
42147;DHT22;27815;43.410;11.852;2023-06-10T18:43:58;23.90;64.00
42147;DHT22;27815;43.410;11.852;2023-06-10T18:48:02;23.70;64.40
42147;DHT22;27815;43.410;11.852;2023-06-10T18:52:06;23.50;64.80
42147;DHT22;27815;43.410;11.852;2023-06-10T18:56:09;23.40;65.30
42147;DHT22;27815;43.410;11.852;2023-06-10T19:00:12;23.20;65.40
42147;DHT22;27815;43.410;11.852;2023-06-10T19:04:16;23.20;65.60
42147;DHT22;27815;43.410;11.852;2023-06-10T19:08:19;23.10;65.80
42147;DHT22;27815;43.410;11.852;2023-06-10T19:12:22;23.00;66.00
42147;DHT22;27815;43.410;11.852;2023-06-10T19:16:25;23.00;66.30
42147;DHT22;27815;43.410;11.852;2023-06-10T19:20:29;23.00;66.50
42147;DHT22;27815;43.410;11.852;2023-06-10T19:24:32;22.90;66.80
42147;DHT22;27815;43.410;11.852;2023-06-10T19:28:35;22.80;67.10
42147;DHT22;27815;43.410;11.852;2023-06-10T19:32:39;22.70;67.20
42147;DHT22;27815;43.410;11.852;2023-06-10T19:36:42;22.70;67.50
42147;DHT22;27815;43.410;11.852;2023-06-10T19:40:45;22.60;67.60
42147;DHT22;27815;43.410;11.852;2023-06-10T19:44:48;22.60;67.80
42147;DHT22;27815;43.410;11.852;2023-06-10T19:48:51;22.50;67.90
42147;DHT22;27815;43.410;11.852;2023-06-10T19:52:54;22.50;68.00
42147;DHT22;27815;43.410;11.852;2023-06-10T19:56:57;22.50;68.10
42147;DHT22;27815;43.410;11.852;2023-06-10T20:01:00;22.50;68.20
42147;DHT22;27815;43.410;11.852;2023-06-10T20:05:03;22.40;68.30
42147;DHT22;27815;43.410;11.852;2023-06-10T20:09:06;22.40;68.60
42147;DHT22;27815;43.410;11.852;2023-06-10T20:13:09;22.20;68.70
42147;DHT22;27815;43.410;11.852;2023-06-10T20:17:13;22.20;68.90
42147;DHT22;27815;43.410;11.852;2023-06-10T20:21:16;22.20;69.00
42147;DHT22;27815;43.410;11.852;2023-06-10T20:25:21;22.10;69.10
42147;DHT22;27815;43.410;11.852;2023-06-10T20:29:25;22.10;69.20
42147;DHT22;27815;43.410;11.852;2023-06-10T20:33:29;22.10;69.30
42147;DHT22;27815;43.410;11.852;2023-06-10T20:37:32;22.10;69.40
42147;DHT22;27815;43.410;11.852;2023-06-10T20:41:36;22.00;69.50
42147;DHT22;27815;43.410;11.852;2023-06-10T20:45:39;22.00;69.60
42147;DHT22;27815;43.410;11.852;2023-06-10T20:49:45;21.90;69.80
42147;DHT22;27815;43.410;11.852;2023-06-10T20:58:37;21.90;70.00
42147;DHT22;27815;43.410;11.852;2023-06-10T21:02:41;21.80;70.00
42147;DHT22;27815;43.410;11.852;2023-06-10T21:07:02;21.60;70.30
42147;DHT22;27815;43.410;11.852;2023-06-10T21:11:19;21.60;70.40
42147;DHT22;27815;43.410;11.852;2023-06-10T21:15:25;21.60;70.40
42147;DHT22;27815;43.410;11.852;2023-06-10T21:25:14;21.60;70.50
42147;DHT22;27815;43.410;11.852;2023-06-10T21:29:23;21.50;70.50
42147;DHT22;27815;43.410;11.852;2023-06-10T21:33:27;21.50;70.70
42147;DHT22;27815;43.410;11.852;2023-06-10T21:38:02;21.50;70.70
42147;DHT22;27815;43.410;11.852;2023-06-10T21:42:47;21.50;70.80
42147;DHT22;27815;43.410;11.852;2023-06-10T21:53:13;21.50;70.90
42147;DHT22;27815;43.410;11.852;2023-06-10T21:57:47;21.50;71.00
42147;DHT22;27815;43.410;11.852;2023-06-10T22:01:53;21.50;70.90
42147;DHT22;27815;43.410;11.852;2023-06-10T22:06:20;21.50;71.00
42147;DHT22;27815;43.410;11.852;2023-06-10T22:11:30;21.50;71.00
42147;DHT22;27815;43.410;11.852;2023-06-10T22:16:40;21.50;71.00
42147;DHT22;27815;43.410;11.852;2023-06-10T22:21:11;21.40;71.00
42147;DHT22;27815;43.410;11.852;2023-06-10T22:25:18;21.40;70.80
42147;DHT22;27815;43.410;11.852;2023-06-10T22:29:26;21.40;70.70
42147;DHT22;27815;43.410;11.852;2023-06-10T22:33:29;21.30;70.70
42147;DHT22;27815;43.410;11.852;2023-06-10T22:37:35;21.50;70.70
42147;DHT22;27815;43.410;11.852;2023-06-10T22:41:38;21.50;70.50
42147;DHT22;27815;43.410;11.852;2023-06-10T22:45:52;21.50;70.40
42147;DHT22;27815;43.410;11.852;2023-06-10T22:50:48;21.40;70.50
42147;DHT22;27815;43.410;11.852;2023-06-10T22:55:17;21.20;70.80
42147;DHT22;27815;43.410;11.852;2023-06-10T22:59:34;21.20;70.80
42147;DHT22;27815;43.410;11.852;2023-06-10T23:04:06;21.20;70.80
42147;DHT22;27815;43.410;11.852;2023-06-10T23:08:09;21.20;70.70
42147;DHT22;27815;43.410;11.852;2023-06-10T23:17:33;21.20;70.80
42147;DHT22;27815;43.410;11.852;2023-06-10T23:26:43;21.00;71.60
42147;DHT22;27815;43.410;11.852;2023-06-10T23:31:29;20.90;71.50
42147;DHT22;27815;43.410;11.852;2023-06-10T23:35:38;20.80;71.70
42147;DHT22;27815;43.410;11.852;2023-06-10T23:40:32;20.80;72.00
42147;DHT22;27815;43.410;11.852;2023-06-10T23:45:05;20.70;72.30
42147;DHT22;27815;43.410;11.852;2023-06-10T23:49:19;20.60;72.40
42147;DHT22;27815;43.410;11.852;2023-06-10T23:53:44;20.70;72.60
